Dallas, TX

11:40 AM CDT on May 27, 2015 (GMT -0500)
Deep Ellum | | Change Station
CLOSE
Current Station
Personal Weather Station
Location: Dallas, TX
Elevation: 489 ft
Nearby Weather Stations
Active Advisory: Flood Warning Active Notice: Local Storm Report

Elev 489 ft 32.78 °N, 96.78 °W | Updated 34 seconds ago

Clear
Clear
78.1 °F
Feels Like 80 °F
N
2.0
Wind Variable Wind from SSE
Gusts 2.5 mph

Today
High -- | Low -- °F
--% Chance of Precip.
Yesterday
High -- | Low -- °F
Precip. -- in
6:21 AM 8:27 PM
Waxing Gibbous, 68% visible
Pressure 30.09 in
Visibility 10.0 miles
Clouds Few 5000 ft
Few 25000 ft
Heat Index 80 °F
Dew Point 65 °F
Humidity 64%
Rainfall 0.05 in
Snow Depth Not available.
UV 7.0 out of 12
Pollen 1.50 out of 12
Air Quality Not available.
Flu Activity Sporadic
METAR KDAL 271553Z 13010KT 10SM FEW050 FEW250 25/17 A3010 RMK AO2 SLP187 CB DSNT N MOV E T02500172

More Conditions Fewer Conditions

Pressure 30.09 in
Visibility 10.0 miles
Clouds Few 5000 ft
Few 25000 ft
Heat Index 80 °F
Dew Point 65 °F
Humidity 64%
Rainfall 0.05 in
Snow Depth Not available.
UV 7.0 out of 12
Pollen 1.50 out of 12
Air Quality Not available.
Flu Activity Sporadic
METAR KDAL 271553Z 13010KT 10SM FEW050 FEW250 25/17 A3010 RMK AO2 SLP187 CB DSNT N MOV E T02500172

More Conditions Fewer Conditions

10-Day Weather Forecast

Almanac

Astronomy

May. 27, 2015 Rise Set
Actual Time
Civil Twilight
Nautical Twilight
Astronomical Twilight
Moon
Length of Visible Light
Length of Day
Tomorrow will be .
, % of the Moon is Illuminated

Today's Extremes

State Highs State Lows

Community

WunderPhotos

Upload Photos

1,824,720 photos uploaded!

WunderBlogs® & News

Nearby

Air Quality

  Air Quality AQ Index Pollutant
Not available.

Snow Depth

Station Depth Elevation

Earthquake Activity

City Distance Mag. Time & Date
Minimum magnitude displayed is 2.5.

Coastal Water Temperatures

Place Temperature

Stations

Nearby Weather Stations

Station Location Temp. Windchill Dew Point Humidity Wind Precip. Elev Updated Type
                   
Flood Warning
Statement as of 9:54 AM CDT on May 27, 2015

The Flood Warning continues for
the Trinity River at Dallas.
* At 0900 am Wednesday the stage was 37.26 feet.
* Flood stage is 30 feet.
* Minor flooding is occurring and minor flooding is forecast.
* Forecast... the river will continue rising to a crest near 38 feet
by Wednesday afternoon then begin falling but remain above flood
stage.


Lat... Lon 3275 9693 3281 9693 3283 9683 3275 9671
      3269 9676 3278 9687




954 am CDT Wed may 27 2015

The Flood Warning continues for
the Elm Fork Trinity River near Carrollton.
* At 0915 am Wednesday the stage was 7.41 feet.
* Flood stage is 8 feet.
* Minor flooding is forecast.
* Forecast... the river is expected to rise above flood stage by
Wednesday night and crest near 9 feet by Sunday after midnight.
* At 8 feet, minor flooding will occur downstream from the gage.


Lat... Lon 3300 9700 3287 9699 3287 9687 3300 9688